sensor_id;sensor_type;location;lat;lon;timestamp;P1;durP1;ratioP1;P2;durP2;ratioP2
29500;SDS011;16450;50.288;10.966;2023-10-09T00:02:43;2.20;;;2.00;;
29500;SDS011;16450;50.288;10.966;2023-10-09T00:05:45;4.30;;;2.37;;
29500;SDS011;16450;50.288;10.966;2023-10-09T00:08:48;2.30;;;2.10;;
29500;SDS011;16450;50.288;10.966;2023-10-09T00:11:56;3.27;;;2.10;;
29500;SDS011;16450;50.288;10.966;2023-10-09T00:14:58;3.80;;;2.30;;
29500;SDS011;16450;50.288;10.966;2023-10-09T00:18:11;2.67;;;2.00;;
29500;SDS011;16450;50.288;10.966;2023-10-09T00:21:14;3.87;;;2.30;;
29500;SDS011;16450;50.288;10.966;2023-10-09T00:24:23;4.80;;;1.90;;
29500;SDS011;16450;50.288;10.966;2023-10-09T00:27:26;3.70;;;2.17;;
29500;SDS011;16450;50.288;10.966;2023-10-09T00:30:33;2.70;;;2.07;;
29500;SDS011;16450;50.288;10.966;2023-10-09T00:33:37;4.83;;;2.07;;
29500;SDS011;16450;50.288;10.966;2023-10-09T00:36:39;3.20;;;2.17;;
29500;SDS011;16450;50.288;10.966;2023-10-09T00:39:52;4.93;;;2.37;;
29500;SDS011;16450;50.288;10.966;2023-10-09T00:42:58;2.70;;;2.20;;
29500;SDS011;16450;50.288;10.966;2023-10-09T00:46:04;7.70;;;2.40;;
29500;SDS011;16450;50.288;10.966;2023-10-09T00:49:25;4.10;;;2.30;;
29500;SDS011;16450;50.288;10.966;2023-10-09T00:52:29;3.43;;;2.20;;
29500;SDS011;16450;50.288;10.966;2023-10-09T00:55:44;3.40;;;2.37;;
29500;SDS011;16450;50.288;10.966;2023-10-09T00:58:49;3.27;;;2.20;;
29500;SDS011;16450;50.288;10.966;2023-10-09T01:01:57;2.93;;;2.10;;
29500;SDS011;16450;50.288;10.966;2023-10-09T01:05:08;3.83;;;2.13;;
29500;SDS011;16450;50.288;10.966;2023-10-09T01:08:20;3.30;;;2.30;;
29500;SDS011;16450;50.288;10.966;2023-10-09T01:11:30;2.43;;;2.07;;
29500;SDS011;16450;50.288;10.966;2023-10-09T01:14:32;2.63;;;2.13;;
29500;SDS011;16450;50.288;10.966;2023-10-09T01:17:37;2.43;;;2.10;;
29500;SDS011;16450;50.288;10.966;2023-10-09T01:20:46;2.87;;;2.40;;
29500;SDS011;16450;50.288;10.966;2023-10-09T01:23:48;3.23;;;2.00;;
29500;SDS011;16450;50.288;10.966;2023-10-09T01:27:10;3.20;;;2.03;;
29500;SDS011;16450;50.288;10.966;2023-10-09T01:30:18;4.33;;;2.57;;
29500;SDS011;16450;50.288;10.966;2023-10-09T01:33:21;3.20;;;2.30;;
29500;SDS011;16450;50.288;10.966;2023-10-09T01:36:25;3.17;;;2.47;;
29500;SDS011;16450;50.288;10.966;2023-10-09T01:39:33;3.60;;;2.53;;
29500;SDS011;16450;50.288;10.966;2023-10-09T01:42:41;2.90;;;2.27;;
29500;SDS011;16450;50.288;10.966;2023-10-09T01:45:47;2.57;;;2.37;;
29500;SDS011;16450;50.288;10.966;2023-10-09T01:48:49;3.87;;;2.30;;
29500;SDS011;16450;50.288;10.966;2023-10-09T01:51:51;3.93;;;2.73;;
29500;SDS011;16450;50.288;10.966;2023-10-09T01:54:53;3.77;;;2.80;;
29500;SDS011;16450;50.288;10.966;2023-10-09T01:57:55;3.53;;;2.93;;
29500;SDS011;16450;50.288;10.966;2023-10-09T02:01:03;4.00;;;2.80;;
29500;SDS011;16450;50.288;10.966;2023-10-09T02:04:06;3.80;;;2.40;;
29500;SDS011;16450;50.288;10.966;2023-10-09T02:07:15;3.07;;;2.60;;
29500;SDS011;16450;50.288;10.966;2023-10-09T02:10:23;4.47;;;2.80;;
29500;SDS011;16450;50.288;10.966;2023-10-09T02:13:25;3.50;;;2.67;;
29500;SDS011;16450;50.288;10.966;2023-10-09T02:16:36;4.20;;;2.43;;
29500;SDS011;16450;50.288;10.966;2023-10-09T02:19:43;4.00;;;2.20;;
29500;SDS011;16450;50.288;10.966;2023-10-09T02:22:49;5.07;;;2.27;;
29500;SDS011;16450;50.288;10.966;2023-10-09T02:25:57;3.97;;;2.53;;
29500;SDS011;16450;50.288;10.966;2023-10-09T02:29:03;5.60;;;2.40;;
29500;SDS011;16450;50.288;10.966;2023-10-09T02:32:06;2.73;;;2.27;;
29500;SDS011;16450;50.288;10.966;2023-10-09T02:35:27;4.00;;;2.30;;
29500;SDS011;16450;50.288;10.966;2023-10-09T02:38:51;2.67;;;2.13;;
29500;SDS011;16450;50.288;10.966;2023-10-09T02:41:57;4.93;;;2.40;;
29500;SDS011;16450;50.288;10.966;2023-10-09T02:45:03;5.47;;;2.40;;
29500;SDS011;16450;50.288;10.966;2023-10-09T02:48:08;4.93;;;2.27;;
29500;SDS011;16450;50.288;10.966;2023-10-09T02:51:12;6.37;;;2.77;;
29500;SDS011;16450;50.288;10.966;2023-10-09T02:54:31;4.30;;;2.77;;
29500;SDS011;16450;50.288;10.966;2023-10-09T02:57:37;4.23;;;2.40;;
29500;SDS011;16450;50.288;10.966;2023-10-09T03:00:41;4.90;;;2.87;;
29500;SDS011;16450;50.288;10.966;2023-10-09T03:03:45;3.80;;;2.60;;
29500;SDS011;16450;50.288;10.966;2023-10-09T03:06:48;4.53;;;2.70;;
29500;SDS011;16450;50.288;10.966;2023-10-09T03:09:54;3.40;;;2.50;;
29500;SDS011;16450;50.288;10.966;2023-10-09T03:12:56;5.17;;;3.20;;
29500;SDS011;16450;50.288;10.966;2023-10-09T03:16:02;7.07;;;3.63;;
29500;SDS011;16450;50.288;10.966;2023-10-09T03:19:05;4.77;;;3.77;;
29500;SDS011;16450;50.288;10.966;2023-10-09T03:22:07;8.27;;;5.20;;
29500;SDS011;16450;50.288;10.966;2023-10-09T03:25:13;10.10;;;6.20;;
29500;SDS011;16450;50.288;10.966;2023-10-09T03:28:18;9.30;;;5.20;;
29500;SDS011;16450;50.288;10.966;2023-10-09T03:31:20;11.67;;;6.43;;
29500;SDS011;16450;50.288;10.966;2023-10-09T03:34:23;11.73;;;6.23;;
29500;SDS011;16450;50.288;10.966;2023-10-09T03:37:25;14.13;;;7.23;;
29500;SDS011;16450;50.288;10.966;2023-10-09T03:40:36;15.77;;;8.40;;
29500;SDS011;16450;50.288;10.966;2023-10-09T03:43:40;17.63;;;8.80;;
29500;SDS011;16450;50.288;10.966;2023-10-09T03:46:42;19.13;;;8.97;;
29500;SDS011;16450;50.288;10.966;2023-10-09T03:49:45;15.70;;;8.57;;
29500;SDS011;16450;50.288;10.966;2023-10-09T03:52:47;17.97;;;10.07;;
29500;SDS011;16450;50.288;10.966;2023-10-09T03:55:54;21.20;;;11.37;;
29500;SDS011;16450;50.288;10.966;2023-10-09T03:58:57;26.30;;;12.00;;
29500;SDS011;16450;50.288;10.966;2023-10-09T04:01:59;23.67;;;11.97;;
29500;SDS011;16450;50.288;10.966;2023-10-09T04:05:01;23.00;;;12.60;;
29500;SDS011;16450;50.288;10.966;2023-10-09T04:08:03;23.90;;;12.30;;
29500;SDS011;16450;50.288;10.966;2023-10-09T04:11:13;25.53;;;11.73;;
29500;SDS011;16450;50.288;10.966;2023-10-09T04:14:24;31.37;;;12.93;;
29500;SDS011;16450;50.288;10.966;2023-10-09T04:17:33;31.17;;;12.77;;
29500;SDS011;16450;50.288;10.966;2023-10-09T04:20:36;24.23;;;12.27;;
29500;SDS011;16450;50.288;10.966;2023-10-09T04:23:57;21.63;;;10.37;;
29500;SDS011;16450;50.288;10.966;2023-10-09T04:27:10;27.67;;;12.10;;
29500;SDS011;16450;50.288;10.966;2023-10-09T04:30:14;29.27;;;12.00;;
29500;SDS011;16450;50.288;10.966;2023-10-09T04:33:17;31.23;;;12.37;;
29500;SDS011;16450;50.288;10.966;2023-10-09T04:36:34;25.80;;;13.20;;
29500;SDS011;16450;50.288;10.966;2023-10-09T04:39:48;26.17;;;12.70;;
29500;SDS011;16450;50.288;10.966;2023-10-09T04:42:51;22.77;;;12.13;;
29500;SDS011;16450;50.288;10.966;2023-10-09T04:46:07;26.57;;;11.67;;
29500;SDS011;16450;50.288;10.966;2023-10-09T04:49:24;31.97;;;12.03;;
29500;SDS011;16450;50.288;10.966;2023-10-09T04:52:29;26.07;;;12.23;;
29500;SDS011;16450;50.288;10.966;2023-10-09T04:55:32;32.40;;;12.60;;
29500;SDS011;16450;50.288;10.966;2023-10-09T04:58:39;29.30;;;13.90;;
29500;SDS011;16450;50.288;10.966;2023-10-09T05:01:42;29.17;;;12.80;;
29500;SDS011;16450;50.288;10.966;2023-10-09T05:04:59;25.33;;;12.00;;
29500;SDS011;16450;50.288;10.966;2023-10-09T05:08:39;22.60;;;12.17;;
29500;SDS011;16450;50.288;10.966;2023-10-09T05:11:47;29.93;;;14.33;;
29500;SDS011;16450;50.288;10.966;2023-10-09T05:14:55;31.57;;;15.00;;
29500;SDS011;16450;50.288;10.966;2023-10-09T05:18:26;29.30;;;14.40;;
29500;SDS011;16450;50.288;10.966;2023-10-09T05:21:30;28.70;;;14.27;;
29500;SDS011;16450;50.288;10.966;2023-10-09T05:24:46;33.03;;;13.93;;
29500;SDS011;16450;50.288;10.966;2023-10-09T05:27:48;26.60;;;14.47;;
29500;SDS011;16450;50.288;10.966;2023-10-09T05:30:54;27.67;;;13.73;;
29500;SDS011;16450;50.288;10.966;2023-10-09T05:34:31;27.53;;;14.03;;
29500;SDS011;16450;50.288;10.966;2023-10-09T05:37:52;25.87;;;13.67;;
29500;SDS011;16450;50.288;10.966;2023-10-09T05:41:02;25.33;;;13.87;;
29500;SDS011;16450;50.288;10.966;2023-10-09T05:44:27;23.00;;;12.10;;
29500;SDS011;16450;50.288;10.966;2023-10-09T05:47:48;24.73;;;13.03;;
29500;SDS011;16450;50.288;10.966;2023-10-09T05:51:26;22.67;;;11.80;;
29500;SDS011;16450;50.288;10.966;2023-10-09T05:54:43;23.33;;;11.87;;
29500;SDS011;16450;50.288;10.966;2023-10-09T05:58:04;25.20;;;12.80;;
29500;SDS011;16450;50.288;10.966;2023-10-09T06:01:38;25.03;;;13.70;;
29500;SDS011;16450;50.288;10.966;2023-10-09T06:04:49;24.40;;;12.37;;
29500;SDS011;16450;50.288;10.966;2023-10-09T06:07:56;22.97;;;12.70;;
29500;SDS011;16450;50.288;10.966;2023-10-09T06:11:11;20.53;;;11.63;;
29500;SDS011;16450;50.288;10.966;2023-10-09T06:14:33;21.47;;;11.93;;
29500;SDS011;16450;50.288;10.966;2023-10-09T06:17:38;19.50;;;11.17;;
29500;SDS011;16450;50.288;10.966;2023-10-09T06:20:51;20.83;;;11.67;;
29500;SDS011;16450;50.288;10.966;2023-10-09T06:24:21;20.43;;;11.10;;
29500;SDS011;16450;50.288;10.966;2023-10-09T06:27:24;20.73;;;11.67;;
29500;SDS011;16450;50.288;10.966;2023-10-09T06:30:34;19.70;;;10.90;;
29500;SDS011;16450;50.288;10.966;2023-10-09T06:33:37;17.43;;;10.63;;
29500;SDS011;16450;50.288;10.966;2023-10-09T06:36:59;20.07;;;10.77;;
29500;SDS011;16450;50.288;10.966;2023-10-09T06:40:08;18.43;;;9.80;;
29500;SDS011;16450;50.288;10.966;2023-10-09T06:43:29;23.03;;;10.63;;
29500;SDS011;16450;50.288;10.966;2023-10-09T06:46:31;19.20;;;10.93;;
29500;SDS011;16450;50.288;10.966;2023-10-09T06:49:45;15.97;;;10.03;;
29500;SDS011;16450;50.288;10.966;2023-10-09T06:53:07;18.27;;;10.07;;
29500;SDS011;16450;50.288;10.966;2023-10-09T06:56:12;14.83;;;9.60;;
29500;SDS011;16450;50.288;10.966;2023-10-09T06:59:24;17.57;;;10.13;;
29500;SDS011;16450;50.288;10.966;2023-10-09T07:02:42;17.83;;;9.87;;
29500;SDS011;16450;50.288;10.966;2023-10-09T07:05:48;15.93;;;9.30;;
29500;SDS011;16450;50.288;10.966;2023-10-09T07:09:06;15.43;;;9.87;;
29500;SDS011;16450;50.288;10.966;2023-10-09T07:12:11;15.30;;;9.80;;
29500;SDS011;16450;50.288;10.966;2023-10-09T07:15:22;18.63;;;9.50;;
29500;SDS011;16450;50.288;10.966;2023-10-09T07:18:47;16.37;;;9.50;;
29500;SDS011;16450;50.288;10.966;2023-10-09T07:21:56;15.67;;;9.57;;
29500;SDS011;16450;50.288;10.966;2023-10-09T07:25:04;16.17;;;9.10;;
29500;SDS011;16450;50.288;10.966;2023-10-09T07:28:38;14.80;;;8.93;;
29500;SDS011;16450;50.288;10.966;2023-10-09T07:31:44;13.57;;;9.23;;
29500;SDS011;16450;50.288;10.966;2023-10-09T07:34:58;13.90;;;9.27;;
29500;SDS011;16450;50.288;10.966;2023-10-09T07:38:01;15.13;;;9.20;;
29500;SDS011;16450;50.288;10.966;2023-10-09T07:41:04;15.07;;;9.27;;
29500;SDS011;16450;50.288;10.966;2023-10-09T07:44:06;13.80;;;8.90;;
29500;SDS011;16450;50.288;10.966;2023-10-09T07:47:20;15.07;;;9.70;;
29500;SDS011;16450;50.288;10.966;2023-10-09T07:50:35;13.83;;;8.67;;
29500;SDS011;16450;50.288;10.966;2023-10-09T07:53:42;14.63;;;9.27;;
29500;SDS011;16450;50.288;10.966;2023-10-09T07:56:45;15.57;;;9.37;;
29500;SDS011;16450;50.288;10.966;2023-10-09T07:59:47;20.47;;;10.33;;
29500;SDS011;16450;50.288;10.966;2023-10-09T08:03:14;17.53;;;9.87;;
29500;SDS011;16450;50.288;10.966;2023-10-09T08:06:25;16.83;;;10.63;;
29500;SDS011;16450;50.288;10.966;2023-10-09T08:09:41;16.90;;;10.63;;
29500;SDS011;16450;50.288;10.966;2023-10-09T08:12:49;17.73;;;10.23;;
29500;SDS011;16450;50.288;10.966;2023-10-09T08:15:55;18.00;;;10.00;;
29500;SDS011;16450;50.288;10.966;2023-10-09T08:18:58;18.67;;;10.53;;
29500;SDS011;16450;50.288;10.966;2023-10-09T08:21:59;14.87;;;9.70;;
29500;SDS011;16450;50.288;10.966;2023-10-09T08:25:20;15.63;;;9.60;;
29500;SDS011;16450;50.288;10.966;2023-10-09T08:28:36;16.90;;;10.10;;
29500;SDS011;16450;50.288;10.966;2023-10-09T08:31:44;14.80;;;9.43;;
29500;SDS011;16450;50.288;10.966;2023-10-09T08:34:58;14.37;;;8.97;;
29500;SDS011;16450;50.288;10.966;2023-10-09T08:38:02;13.10;;;8.97;;
29500;SDS011;16450;50.288;10.966;2023-10-09T08:41:10;16.80;;;9.27;;
29500;SDS011;16450;50.288;10.966;2023-10-09T08:44:19;16.90;;;9.53;;
29500;SDS011;16450;50.288;10.966;2023-10-09T08:47:26;19.10;;;9.80;;
29500;SDS011;16450;50.288;10.966;2023-10-09T08:50:28;14.17;;;9.30;;
29500;SDS011;16450;50.288;10.966;2023-10-09T08:53:30;14.73;;;8.97;;
29500;SDS011;16450;50.288;10.966;2023-10-09T08:56:34;16.23;;;9.47;;
29500;SDS011;16450;50.288;10.966;2023-10-09T08:59:40;16.93;;;9.90;;
29500;SDS011;16450;50.288;10.966;2023-10-09T09:02:47;19.17;;;10.47;;
29500;SDS011;16450;50.288;10.966;2023-10-09T09:05:59;15.20;;;9.23;;
29500;SDS011;16450;50.288;10.966;2023-10-09T09:09:09;15.03;;;9.40;;
29500;SDS011;16450;50.288;10.966;2023-10-09T09:12:15;14.77;;;8.23;;
29500;SDS011;16450;50.288;10.966;2023-10-09T09:15:17;15.73;;;9.27;;
29500;SDS011;16450;50.288;10.966;2023-10-09T09:18:23;15.27;;;9.63;;
29500;SDS011;16450;50.288;10.966;2023-10-09T09:21:33;13.67;;;9.17;;
29500;SDS011;16450;50.288;10.966;2023-10-09T09:24:56;14.90;;;9.20;;
29500;SDS011;16450;50.288;10.966;2023-10-09T09:28:04;15.90;;;9.17;;
29500;SDS011;16450;50.288;10.966;2023-10-09T09:31:13;13.37;;;9.23;;
29500;SDS011;16450;50.288;10.966;2023-10-09T09:34:17;16.47;;;9.13;;
29500;SDS011;16450;50.288;10.966;2023-10-09T09:37:19;17.33;;;9.57;;
29500;SDS011;16450;50.288;10.966;2023-10-09T09:40:22;15.57;;;9.07;;
29500;SDS011;16450;50.288;10.966;2023-10-09T09:43:43;13.67;;;8.50;;
29500;SDS011;16450;50.288;10.966;2023-10-09T09:46:48;12.93;;;8.70;;
29500;SDS011;16450;50.288;10.966;2023-10-09T09:49:51;13.20;;;8.80;;
29500;SDS011;16450;50.288;10.966;2023-10-09T09:52:54;12.80;;;8.20;;
29500;SDS011;16450;50.288;10.966;2023-10-09T09:55:58;15.63;;;9.63;;
29500;SDS011;16450;50.288;10.966;2023-10-09T09:59:01;13.27;;;9.33;;
29500;SDS011;16450;50.288;10.966;2023-10-09T10:02:10;13.20;;;8.80;;
29500;SDS011;16450;50.288;10.966;2023-10-09T10:05:22;13.33;;;8.37;;
29500;SDS011;16450;50.288;10.966;2023-10-09T10:08:25;14.60;;;8.37;;
29500;SDS011;16450;50.288;10.966;2023-10-09T10:11:44;15.57;;;9.47;;
29500;SDS011;16450;50.288;10.966;2023-10-09T10:14:54;16.87;;;9.27;;
29500;SDS011;16450;50.288;10.966;2023-10-09T10:18:09;14.50;;;8.90;;
29500;SDS011;16450;50.288;10.966;2023-10-09T10:21:12;14.23;;;9.67;;
29500;SDS011;16450;50.288;10.966;2023-10-09T10:28:15;15.20;;;8.83;;
29500;SDS011;16450;50.288;10.966;2023-10-09T10:34:56;14.63;;;8.87;;
29500;SDS011;16450;50.288;10.966;2023-10-09T10:37:58;15.83;;;9.00;;
29500;SDS011;16450;50.288;10.966;2023-10-09T10:41:14;12.43;;;8.50;;
29500;SDS011;16450;50.288;10.966;2023-10-09T10:44:25;12.60;;;8.27;;
29500;SDS011;16450;50.288;10.966;2023-10-09T10:47:43;15.17;;;8.47;;
29500;SDS011;16450;50.288;10.966;2023-10-09T10:50:49;13.73;;;8.70;;
29500;SDS011;16450;50.288;10.966;2023-10-09T10:53:58;12.63;;;8.30;;
29500;SDS011;16450;50.288;10.966;2023-10-09T10:57:01;11.87;;;8.17;;
29500;SDS011;16450;50.288;10.966;2023-10-09T11:00:09;11.97;;;8.20;;
29500;SDS011;16450;50.288;10.966;2023-10-09T11:03:35;15.30;;;8.60;;
29500;SDS011;16450;50.288;10.966;2023-10-09T11:06:56;15.23;;;8.60;;
29500;SDS011;16450;50.288;10.966;2023-10-09T11:10:10;13.23;;;8.20;;
29500;SDS011;16450;50.288;10.966;2023-10-09T11:13:25;15.17;;;9.00;;
29500;SDS011;16450;50.288;10.966;2023-10-09T11:16:36;14.67;;;7.90;;
29500;SDS011;16450;50.288;10.966;2023-10-09T11:19:48;12.93;;;7.63;;
29500;SDS011;16450;50.288;10.966;2023-10-09T11:22:54;14.70;;;8.30;;
29500;SDS011;16450;50.288;10.966;2023-10-09T11:26:14;10.87;;;6.97;;
29500;SDS011;16450;50.288;10.966;2023-10-09T11:29:23;11.63;;;7.00;;
29500;SDS011;16450;50.288;10.966;2023-10-09T11:32:35;13.40;;;7.47;;
29500;SDS011;16450;50.288;10.966;2023-10-09T11:35:39;11.33;;;6.87;;
29500;SDS011;16450;50.288;10.966;2023-10-09T11:38:44;14.10;;;7.27;;
29500;SDS011;16450;50.288;10.966;2023-10-09T11:41:47;11.10;;;6.80;;
29500;SDS011;16450;50.288;10.966;2023-10-09T11:44:51;10.53;;;6.57;;
29500;SDS011;16450;50.288;10.966;2023-10-09T11:47:57;9.93;;;6.10;;
29500;SDS011;16450;50.288;10.966;2023-10-09T11:51:22;12.80;;;6.43;;
29500;SDS011;16450;50.288;10.966;2023-10-09T11:54:31;12.40;;;6.73;;
29500;SDS011;16450;50.288;10.966;2023-10-09T11:57:34;11.20;;;6.47;;
29500;SDS011;16450;50.288;10.966;2023-10-09T12:00:36;11.23;;;6.60;;
29500;SDS011;16450;50.288;10.966;2023-10-09T12:03:48;10.67;;;5.83;;
29500;SDS011;16450;50.288;10.966;2023-10-09T12:06:55;10.70;;;6.17;;
29500;SDS011;16450;50.288;10.966;2023-10-09T12:10:07;11.90;;;5.53;;
29500;SDS011;16450;50.288;10.966;2023-10-09T12:13:11;10.43;;;5.40;;
29500;SDS011;16450;50.288;10.966;2023-10-09T12:16:13;10.93;;;4.77;;
29500;SDS011;16450;50.288;10.966;2023-10-09T12:19:16;8.27;;;4.80;;
29500;SDS011;16450;50.288;10.966;2023-10-09T12:22:19;11.67;;;5.23;;
29500;SDS011;16450;50.288;10.966;2023-10-09T12:25:23;9.10;;;4.93;;
29500;SDS011;16450;50.288;10.966;2023-10-09T12:28:25;9.57;;;5.33;;
29500;SDS011;16450;50.288;10.966;2023-10-09T12:31:27;9.93;;;4.50;;
29500;SDS011;16450;50.288;10.966;2023-10-09T12:34:35;8.70;;;4.60;;
29500;SDS011;16450;50.288;10.966;2023-10-09T12:37:39;10.30;;;4.60;;
29500;SDS011;16450;50.288;10.966;2023-10-09T12:40:44;10.90;;;4.90;;
29500;SDS011;16450;50.288;10.966;2023-10-09T12:43:52;8.60;;;4.60;;
29500;SDS011;16450;50.288;10.966;2023-10-09T12:46:55;9.27;;;4.47;;
29500;SDS011;16450;50.288;10.966;2023-10-09T12:49:58;8.67;;;4.27;;
29500;SDS011;16450;50.288;10.966;2023-10-09T12:53:00;10.80;;;4.70;;
29500;SDS011;16450;50.288;10.966;2023-10-09T12:56:08;9.10;;;4.30;;
29500;SDS011;16450;50.288;10.966;2023-10-09T12:59:12;9.47;;;3.93;;
29500;SDS011;16450;50.288;10.966;2023-10-09T13:02:16;7.30;;;4.07;;
29500;SDS011;16450;50.288;10.966;2023-10-09T13:05:31;8.73;;;3.90;;
29500;SDS011;16450;50.288;10.966;2023-10-09T13:08:33;9.23;;;3.87;;
29500;SDS011;16450;50.288;10.966;2023-10-09T13:11:38;9.93;;;4.30;;
29500;SDS011;16450;50.288;10.966;2023-10-09T13:14:44;8.77;;;4.30;;
29500;SDS011;16450;50.288;10.966;2023-10-09T13:17:48;10.57;;;3.70;;
29500;SDS011;16450;50.288;10.966;2023-10-09T13:20:50;9.23;;;4.10;;
29500;SDS011;16450;50.288;10.966;2023-10-09T13:23:52;7.43;;;4.00;;
29500;SDS011;16450;50.288;10.966;2023-10-09T13:26:56;9.10;;;5.00;;
29500;SDS011;16450;50.288;10.966;2023-10-09T13:30:00;11.60;;;4.67;;
29500;SDS011;16450;50.288;10.966;2023-10-09T13:33:09;8.53;;;4.60;;
29500;SDS011;16450;50.288;10.966;2023-10-09T13:36:18;9.33;;;4.30;;
29500;SDS011;16450;50.288;10.966;2023-10-09T13:39:28;8.73;;;4.50;;
29500;SDS011;16450;50.288;10.966;2023-10-09T13:42:39;9.07;;;4.20;;
29500;SDS011;16450;50.288;10.966;2023-10-09T13:45:42;8.87;;;4.30;;
29500;SDS011;16450;50.288;10.966;2023-10-09T13:48:51;10.53;;;4.17;;
29500;SDS011;16450;50.288;10.966;2023-10-09T13:51:54;11.93;;;4.43;;
29500;SDS011;16450;50.288;10.966;2023-10-09T13:54:58;11.40;;;4.67;;
29500;SDS011;16450;50.288;10.966;2023-10-09T13:58:16;9.80;;;4.30;;
29500;SDS011;16450;50.288;10.966;2023-10-09T14:01:22;9.53;;;4.50;;
29500;SDS011;16450;50.288;10.966;2023-10-09T14:04:34;9.00;;;4.50;;
29500;SDS011;16450;50.288;10.966;2023-10-09T14:07:36;8.33;;;3.93;;
29500;SDS011;16450;50.288;10.966;2023-10-09T14:10:38;7.40;;;4.33;;
29500;SDS011;16450;50.288;10.966;2023-10-09T14:13:40;9.03;;;4.27;;
29500;SDS011;16450;50.288;10.966;2023-10-09T14:16:43;7.53;;;4.20;;
29500;SDS011;16450;50.288;10.966;2023-10-09T14:19:46;11.47;;;4.43;;
29500;SDS011;16450;50.288;10.966;2023-10-09T14:22:49;9.53;;;4.40;;
29500;SDS011;16450;50.288;10.966;2023-10-09T14:25:54;13.37;;;5.30;;
29500;SDS011;16450;50.288;10.966;2023-10-09T14:28:57;12.10;;;4.37;;
29500;SDS011;16450;50.288;10.966;2023-10-09T14:31:59;8.80;;;4.07;;
29500;SDS011;16450;50.288;10.966;2023-10-09T14:35:01;11.67;;;4.40;;
29500;SDS011;16450;50.288;10.966;2023-10-09T14:38:04;8.77;;;4.20;;
29500;SDS011;16450;50.288;10.966;2023-10-09T14:41:12;11.10;;;4.40;;
29500;SDS011;16450;50.288;10.966;2023-10-09T14:44:14;9.17;;;4.37;;
29500;SDS011;16450;50.288;10.966;2023-10-09T14:47:18;9.83;;;4.40;;
29500;SDS011;16450;50.288;10.966;2023-10-09T14:50:20;11.33;;;4.90;;
29500;SDS011;16450;50.288;10.966;2023-10-09T14:53:25;8.90;;;4.50;;
29500;SDS011;16450;50.288;10.966;2023-10-09T14:56:28;11.97;;;4.60;;
29500;SDS011;16450;50.288;10.966;2023-10-09T14:59:30;11.90;;;4.53;;
29500;SDS011;16450;50.288;10.966;2023-10-09T15:02:33;9.73;;;4.67;;
29500;SDS011;16450;50.288;10.966;2023-10-09T15:05:35;11.83;;;5.03;;
29500;SDS011;16450;50.288;10.966;2023-10-09T15:08:37;11.80;;;4.40;;
29500;SDS011;16450;50.288;10.966;2023-10-09T15:11:39;7.63;;;4.60;;
29500;SDS011;16450;50.288;10.966;2023-10-09T15:14:41;10.57;;;4.50;;
29500;SDS011;16450;50.288;10.966;2023-10-09T15:17:44;11.17;;;4.70;;
29500;SDS011;16450;50.288;10.966;2023-10-09T15:20:50;11.83;;;4.13;;
29500;SDS011;16450;50.288;10.966;2023-10-09T15:23:56;10.47;;;4.63;;
29500;SDS011;16450;50.288;10.966;2023-10-09T15:26:59;14.47;;;4.93;;
29500;SDS011;16450;50.288;10.966;2023-10-09T15:30:01;11.33;;;4.53;;
29500;SDS011;16450;50.288;10.966;2023-10-09T15:33:06;10.83;;;4.40;;
29500;SDS011;16450;50.288;10.966;2023-10-09T15:36:10;9.00;;;4.47;;
29500;SDS011;16450;50.288;10.966;2023-10-09T15:39:16;8.83;;;4.60;;
29500;SDS011;16450;50.288;10.966;2023-10-09T15:42:20;8.40;;;4.60;;
29500;SDS011;16450;50.288;10.966;2023-10-09T15:45:23;8.30;;;4.50;;
29500;SDS011;16450;50.288;10.966;2023-10-09T15:48:29;8.07;;;4.10;;
29500;SDS011;16450;50.288;10.966;2023-10-09T15:51:33;11.63;;;4.87;;
29500;SDS011;16450;50.288;10.966;2023-10-09T15:54:35;9.97;;;4.40;;
29500;SDS011;16450;50.288;10.966;2023-10-09T15:57:38;8.40;;;4.90;;
29500;SDS011;16450;50.288;10.966;2023-10-09T16:00:42;11.33;;;4.80;;
29500;SDS011;16450;50.288;10.966;2023-10-09T16:03:45;11.27;;;4.40;;
29500;SDS011;16450;50.288;10.966;2023-10-09T16:06:55;10.00;;;4.73;;
29500;SDS011;16450;50.288;10.966;2023-10-09T16:09:57;9.50;;;4.70;;
29500;SDS011;16450;50.288;10.966;2023-10-09T16:13:00;8.83;;;4.50;;
29500;SDS011;16450;50.288;10.966;2023-10-09T16:16:02;11.43;;;4.70;;
29500;SDS011;16450;50.288;10.966;2023-10-09T16:19:09;10.80;;;4.90;;
29500;SDS011;16450;50.288;10.966;2023-10-09T16:22:11;11.37;;;4.87;;
29500;SDS011;16450;50.288;10.966;2023-10-09T16:25:14;11.70;;;5.20;;
29500;SDS011;16450;50.288;10.966;2023-10-09T16:28:18;12.63;;;5.13;;
29500;SDS011;16450;50.288;10.966;2023-10-09T16:31:20;12.27;;;4.70;;
29500;SDS011;16450;50.288;10.966;2023-10-09T16:34:24;11.07;;;4.93;;
29500;SDS011;16450;50.288;10.966;2023-10-09T16:37:28;12.97;;;4.73;;
29500;SDS011;16450;50.288;10.966;2023-10-09T16:40:30;8.50;;;4.40;;
29500;SDS011;16450;50.288;10.966;2023-10-09T16:43:33;10.17;;;5.00;;
29500;SDS011;16450;50.288;10.966;2023-10-09T16:46:38;8.70;;;4.43;;
29500;SDS011;16450;50.288;10.966;2023-10-09T16:49:41;10.77;;;4.77;;
29500;SDS011;16450;50.288;10.966;2023-10-09T16:52:44;10.73;;;4.57;;
29500;SDS011;16450;50.288;10.966;2023-10-09T16:55:46;10.77;;;5.07;;
29500;SDS011;16450;50.288;10.966;2023-10-09T16:58:50;11.53;;;4.90;;
29500;SDS011;16450;50.288;10.966;2023-10-09T17:01:55;10.50;;;5.10;;
29500;SDS011;16450;50.288;10.966;2023-10-09T17:04:57;12.00;;;5.37;;
29500;SDS011;16450;50.288;10.966;2023-10-09T17:07:59;10.77;;;4.90;;
29500;SDS011;16450;50.288;10.966;2023-10-09T17:11:01;8.73;;;4.80;;
29500;SDS011;16450;50.288;10.966;2023-10-09T17:14:11;11.70;;;6.13;;
29500;SDS011;16450;50.288;10.966;2023-10-09T17:17:16;12.47;;;5.60;;
29500;SDS011;16450;50.288;10.966;2023-10-09T17:20:22;10.50;;;5.27;;
29500;SDS011;16450;50.288;10.966;2023-10-09T17:23:28;11.10;;;5.50;;
29500;SDS011;16450;50.288;10.966;2023-10-09T17:26:34;11.10;;;5.33;;
29500;SDS011;16450;50.288;10.966;2023-10-09T17:29:37;9.13;;;5.50;;
29500;SDS011;16450;50.288;10.966;2023-10-09T17:32:39;14.50;;;6.20;;
29500;SDS011;16450;50.288;10.966;2023-10-09T17:35:41;8.77;;;5.50;;
29500;SDS011;16450;50.288;10.966;2023-10-09T17:38:44;10.37;;;5.23;;
29500;SDS011;16450;50.288;10.966;2023-10-09T17:41:51;9.27;;;5.13;;
29500;SDS011;16450;50.288;10.966;2023-10-09T17:44:54;12.90;;;4.97;;
29500;SDS011;16450;50.288;10.966;2023-10-09T17:47:56;9.13;;;4.57;;
29500;SDS011;16450;50.288;10.966;2023-10-09T17:51:01;10.33;;;5.10;;
29500;SDS011;16450;50.288;10.966;2023-10-09T17:54:10;9.80;;;5.10;;
29500;SDS011;16450;50.288;10.966;2023-10-09T17:57:15;12.63;;;4.97;;
29500;SDS011;16450;50.288;10.966;2023-10-09T18:00:17;10.00;;;5.43;;
29500;SDS011;16450;50.288;10.966;2023-10-09T18:03:27;7.40;;;4.60;;
29500;SDS011;16450;50.288;10.966;2023-10-09T18:06:30;11.47;;;5.77;;
29500;SDS011;16450;50.288;10.966;2023-10-09T18:09:36;10.10;;;5.80;;
29500;SDS011;16450;50.288;10.966;2023-10-09T18:12:41;9.07;;;5.77;;
29500;SDS011;16450;50.288;10.966;2023-10-09T18:15:44;10.23;;;6.10;;
29500;SDS011;16450;50.288;10.966;2023-10-09T18:18:46;14.50;;;6.43;;
29500;SDS011;16450;50.288;10.966;2023-10-09T18:21:48;14.43;;;6.30;;
29500;SDS011;16450;50.288;10.966;2023-10-09T18:24:52;11.50;;;6.30;;
29500;SDS011;16450;50.288;10.966;2023-10-09T18:27:54;12.27;;;6.67;;